Time;durP1;ratioP1;P1;durP2;ratioP2;P2;SDS_P1;SDS_P2;PMS_P1;PMS_P2;Temp;Humidity;BMP_temperature;BMP_pressure;BME280_temperature;BME280_humidity;BME280_pressure;Samples;Min_cycle;Max_cycle;Signal;HPM_P1;HPM_P2
2022/08/30 00:01:10;;;;;;;6.67;6.07;;;20.10;92.10;;;;;;5031703;28;20522;-70
2022/08/30 00:03:42;;;;;;;7.17;6.47;;;20.20;92.40;;;;;;5046515;28;20443;-67
2022/08/30 00:06:08;;;;;;;6.00;5.60;;;20.20;92.50;;;;;;5070684;28;20914;-70
2022/08/30 00:08:36;;;;;;;7.00;6.33;;;20.10;92.30;;;;;;5041887;28;20424;-67
2022/08/30 00:11:04;;;;;;;7.17;6.40;;;20.20;92.50;;;;;;5030900;28;20459;-67
2022/08/30 00:13:30;;;;;;;6.73;6.10;;;20.20;92.70;;;;;;5033653;28;20964;-67
2022/08/30 00:15:57;;;;;;;6.97;6.40;;;20.20;92.90;;;;;;5043782;28;20428;-67
2022/08/30 00:18:23;;;;;;;7.67;6.93;;;20.30;93.40;;;;;;5051687;28;20460;-67
2022/08/30 00:20:49;;;;;;;6.13;5.73;;;20.30;94.00;;;;;;5054148;28;20507;-67
2022/08/30 00:23:16;;;;;;;7.03;6.53;;;20.30;94.60;;;;;;5040498;28;20432;-68
2022/08/30 00:25:43;;;;;;;6.10;5.70;;;20.30;93.80;;;;;;5052771;28;20426;-66
2022/08/30 00:28:10;;;;;;;9.23;6.13;;;20.30;93.70;;;;;;5047700;28;20522;-70
2022/08/30 00:30:37;;;;;;;5.73;5.33;;;20.30;93.40;;;;;;5053137;28;21022;-67
2022/08/30 00:33:03;;;;;;;7.00;6.30;;;20.30;93.50;;;;;;5054649;28;20420;-67
2022/08/30 00:35:29;;;;;;;6.20;5.80;;;20.40;94.00;;;;;;5067971;28;20430;-67
2022/08/30 00:37:55;;;;;;;6.70;6.10;;;20.40;94.00;;;;;;5051568;28;20436;-67
2022/08/30 00:40:22;;;;;;;6.50;5.97;;;20.40;94.00;;;;;;5034640;28;20257;-67
2022/08/30 00:42:48;;;;;;;7.07;6.37;;;20.40;93.70;;;;;;5034991;28;20433;-67
2022/08/30 00:45:23;;;;;;;7.37;6.20;;;20.40;93.60;;;;;;5033579;28;20917;-68
2022/08/30 00:47:50;;;;;;;7.10;6.40;;;20.30;93.60;;;;;;5044031;28;20435;-67
2022/08/30 00:50:19;;;;;;;8.13;6.27;;;20.30;93.60;;;;;;5043621;28;21003;-67
2022/08/30 00:52:48;;;;;;;9.97;6.77;;;20.20;93.70;;;;;;5024189;28;20491;-67
2022/08/30 00:55:16;;;;;;;7.03;6.40;;;20.00;94.00;;;;;;5042184;28;20416;-70
2022/08/30 00:57:44;;;;;;;7.60;6.83;;;19.90;94.10;;;;;;5038804;28;20424;-68
2022/08/30 01:00:12;;;;;;;6.40;5.80;;;19.80;94.20;;;;;;5042387;28;20409;-70
2022/08/30 01:02:38;;;;;;;6.23;5.63;;;19.80;94.60;;;;;;5024041;28;20968;-67
2022/08/30 01:05:07;;;;;;;7.03;6.33;;;19.80;94.70;;;;;;5043722;28;20411;-67
2022/08/30 01:07:33;;;;;;;8.97;6.60;;;19.80;94.80;;;;;;5039658;28;20747;-68
2022/08/30 01:10:01;;;;;;;10.33;6.67;;;19.90;94.90;;;;;;5042396;28;20453;-67
2022/08/30 01:12:28;;;;;;;6.70;6.07;;;19.90;94.60;;;;;;5040631;28;20804;-67
2022/08/30 01:14:55;;;;;;;6.70;6.20;;;20.00;94.60;;;;;;5041496;28;20428;-67
2022/08/30 01:17:21;;;;;;;6.53;6.10;;;20.00;94.70;;;;;;5038675;28;20444;-67
2022/08/30 01:19:53;;;;;;;10.43;6.10;;;20.10;94.70;;;;;;5033862;28;20436;-67
2022/08/30 01:22:48;;;;;;;7.10;6.40;;;20.10;94.60;;;;;;5032564;28;20436;-67
2022/08/30 01:25:18;;;;;;;7.27;6.73;;;20.10;94.40;;;;;;4998521;28;20450;-71
2022/08/30 01:27:49;;;;;;;6.37;5.70;;;20.10;94.70;;;;;;5040814;28;20489;-67
2022/08/30 01:30:15;;;;;;;6.13;5.67;;;20.10;94.40;;;;;;5050458;28;20435;-68
2022/08/30 01:32:45;;;;;;;6.47;5.87;;;20.10;94.50;;;;;;5051155;28;20428;-67
2022/08/30 01:35:16;;;;;;;7.03;6.47;;;20.10;94.40;;;;;;5023705;28;20248;-70
2022/08/30 01:37:44;;;;;;;7.60;6.70;;;20.10;94.60;;;;;;5039387;28;20435;-67
2022/08/30 01:40:13;;;;;;;7.10;6.60;;;20.00;94.80;;;;;;5053465;28;20448;-67
2022/08/30 01:42:39;;;;;;;7.43;6.70;;;20.00;94.80;;;;;;5053063;28;20416;-67
2022/08/30 01:45:05;;;;;;;7.80;6.80;;;20.00;94.80;;;;;;5043095;28;20519;-67
2022/08/30 01:47:31;;;;;;;8.60;7.17;;;20.00;94.70;;;;;;5052410;28;20412;-67
2022/08/30 01:49:57;;;;;;;6.63;6.00;;;20.00;94.90;;;;;;5050600;28;20509;-67
2022/08/30 01:52:24;;;;;;;7.77;6.50;;;20.00;95.10;;;;;;5052245;28;20460;-67
2022/08/30 01:54:51;;;;;;;7.53;6.73;;;20.00;95.00;;;;;;5034337;28;20832;-67
2022/08/30 01:57:21;;;;;;;7.80;6.53;;;19.80;95.50;;;;;;5051346;28;20428;-68
2022/08/30 01:59:48;;;;;;;7.83;7.13;;;19.80;95.70;;;;;;5048331;28;20429;-67
2022/08/30 02:02:18;;;;;;;7.43;6.83;;;19.80;96.10;;;;;;5036051;28;20428;-71
2022/08/30 02:04:44;;;;;;;7.27;6.57;;;19.90;96.40;;;;;;5051572;28;20943;-67
2022/08/30 02:07:10;;;;;;;7.20;6.53;;;19.90;96.40;;;;;;5052806;28;20422;-67
2022/08/30 02:09:36;;;;;;;8.33;7.57;;;19.90;96.30;;;;;;5052118;28;20762;-67
2022/08/30 02:12:06;;;;;;;7.23;6.53;;;19.90;96.30;;;;;;5052745;28;20452;-67
2022/08/30 02:14:33;;;;;;;8.03;7.43;;;19.90;96.60;;;;;;5050804;28;20432;-67
2022/08/30 02:16:58;;;;;;;7.43;6.83;;;19.90;96.40;;;;;;5039265;28;20796;-66
2022/08/30 02:19:24;;;;;;;8.00;7.43;;;19.80;96.40;;;;;;5031891;28;20421;-67
2022/08/30 02:21:50;;;;;;;7.63;7.03;;;19.80;96.50;;;;;;5032891;28;20197;-67
2022/08/30 02:24:16;;;;;;;7.77;7.07;;;19.70;96.70;;;;;;5038253;28;20630;-70
2022/08/30 02:26:41;;;;;;;7.10;6.40;;;19.70;97.00;;;;;;5034557;28;20181;-67
2022/08/30 02:29:07;;;;;;;7.87;7.27;;;19.70;97.10;;;;;;5052577;28;20692;-67
2022/08/30 02:31:33;;;;;;;7.50;6.90;;;19.80;97.10;;;;;;5050367;28;20209;-67
2022/08/30 02:34:00;;;;;;;7.80;7.20;;;19.80;97.00;;;;;;5051061;28;20178;-67
2022/08/30 02:36:25;;;;;;;8.10;7.50;;;19.80;97.20;;;;;;5051400;28;20442;-67
2022/08/30 02:38:51;;;;;;;8.20;7.50;;;19.80;97.10;;;;;;5050952;28;20915;-67
2022/08/30 02:41:18;;;;;;;6.87;6.37;;;19.70;97.10;;;;;;5051899;28;20541;-71
2022/08/30 02:43:44;;;;;;;7.70;7.00;;;19.60;97.30;;;;;;5030654;28;20501;-67
2022/08/30 02:46:10;;;;;;;9.13;8.27;;;19.50;97.70;;;;;;5032305;28;20433;-67
2022/08/30 02:48:36;;;;;;;8.13;7.43;;;19.50;97.80;;;;;;5031558;28;20420;-67
2022/08/30 02:51:08;;;;;;;8.90;7.63;;;19.50;98.40;;;;;;5040170;28;20225;-67
2022/08/30 02:53:33;;;;;;;7.93;7.33;;;19.60;98.40;;;;;;5050216;28;20178;-67
2022/08/30 02:55:59;;;;;;;8.27;7.57;;;19.60;98.40;;;;;;5044495;28;20439;-67
2022/08/30 02:58:25;;;;;;;8.13;7.43;;;19.60;98.10;;;;;;5049753;28;20695;-67
2022/08/30 03:00:51;;;;;;;7.57;6.80;;;19.50;98.10;;;;;;5044636;28;20212;-67
2022/08/30 03:03:17;;;;;;;8.67;7.77;;;19.50;98.40;;;;;;5031958;28;20178;-71
2022/08/30 03:05:42;;;;;;;8.60;7.80;;;19.50;98.30;;;;;;5042419;28;20441;-67
2022/08/30 03:08:09;;;;;;;11.90;7.70;;;19.40;98.50;;;;;;5032416;28;20181;-67
2022/08/30 03:10:35;;;;;;;8.17;7.57;;;19.50;99.40;;;;;;5031281;28;20214;-67
2022/08/30 03:13:02;;;;;;;8.23;7.43;;;19.60;99.00;;;;;;5037968;28;20486;-67
2022/08/30 03:15:28;;;;;;;8.07;7.40;;;19.60;98.80;;;;;;5033538;28;20445;-67
2022/08/30 03:17:54;;;;;;;8.73;7.93;;;19.70;98.50;;;;;;5032161;28;20420;-67
2022/08/30 03:20:21;;;;;;;9.40;8.47;;;19.50;98.60;;;;;;5013456;28;20182;-72
2022/08/30 03:22:47;;;;;;;9.40;7.67;;;19.60;98.80;;;;;;5031821;28;20425;-67
2022/08/30 03:25:13;;;;;;;8.83;8.13;;;19.60;98.60;;;;;;5044690;28;20431;-67
2022/08/30 03:27:39;;;;;;;13.63;8.33;;;19.60;98.50;;;;;;5049926;28;20589;-67
2022/08/30 03:30:06;;;;;;;9.63;8.77;;;19.50;98.50;;;;;;5050888;28;20912;-67
2022/08/30 03:32:32;;;;;;;9.73;8.50;;;19.60;98.80;;;;;;5033174;28;20649;-67
2022/08/30 03:34:58;;;;;;;8.27;7.50;;;19.60;98.60;;;;;;5050501;28;20443;-67
2022/08/30 03:37:26;;;;;;;9.77;8.97;;;19.70;98.60;;;;;;5050939;28;20416;-67
2022/08/30 03:39:52;;;;;;;10.40;9.43;;;19.60;98.50;;;;;;5049608;28;20181;-67
2022/08/30 03:42:18;;;;;;;9.37;8.57;;;19.70;98.60;;;;;;5051536;28;20426;-72
2022/08/30 03:44:45;;;;;;;9.43;8.63;;;19.70;98.30;;;;;;5049704;28;20514;-67
2022/08/30 03:47:10;;;;;;;9.77;8.77;;;19.60;98.60;;;;;;5051693;28;20417;-67
2022/08/30 03:49:37;;;;;;;9.97;9.07;;;19.60;98.60;;;;;;5051874;28;20460;-67
2022/08/30 03:52:03;;;;;;;9.10;8.37;;;19.60;98.40;;;;;;5054229;28;20271;-67
2022/08/30 03:54:28;;;;;;;9.40;8.70;;;19.70;98.40;;;;;;5053432;28;20474;-67
2022/08/30 03:56:55;;;;;;;9.77;8.80;;;19.70;98.40;;;;;;5055122;28;20418;-67
2022/08/30 03:59:21;;;;;;;8.83;8.00;;;19.70;98.20;;;;;;5037790;28;20185;-71
2022/08/30 04:01:47;;;;;;;9.03;8.07;;;19.70;98.20;;;;;;5034743;28;20420;-67
2022/08/30 04:04:13;;;;;;;10.73;9.73;;;19.60;98.30;;;;;;5038889;28;20434;-67
2022/08/30 04:06:39;;;;;;;9.33;8.37;;;19.40;98.70;;;;;;5036878;28;20433;-67
2022/08/30 04:09:05;;;;;;;9.07;8.37;;;19.30;99.30;;;;;;5034990;28;20928;-67
2022/08/30 04:11:31;;;;;;;9.30;8.53;;;19.30;99.50;;;;;;5034152;28;20489;-67
2022/08/30 04:13:57;;;;;;;10.03;9.03;;;19.30;99.40;;;;;;5036169;28;20413;-67
2022/08/30 04:16:24;;;;;;;9.40;8.50;;;19.30;99.30;;;;;;5001772;28;20231;-71
2022/08/30 04:18:49;;;;;;;10.00;8.97;;;19.20;99.40;;;;;;5037473;28;20217;-67
2022/08/30 04:21:16;;;;;;;9.00;8.20;;;19.10;99.60;;;;;;5054657;28;20456;-67
2022/08/30 04:23:42;;;;;;;8.90;8.10;;;19.20;99.90;;;;;;5053862;28;20742;-70
2022/08/30 04:26:08;;;;;;;11.47;10.47;;;19.20;99.80;;;;;;5053107;28;20789;-67
2022/08/30 04:28:34;;;;;;;13.13;9.20;;;19.20;99.50;;;;;;5053983;28;20439;-67
2022/08/30 04:31:10;;;;;;;11.20;9.33;;;19.20;99.50;;;;;;5053746;28;20529;-67
2022/08/30 04:33:36;;;;;;;10.50;9.50;;;19.20;99.60;;;;;;5052805;28;20432;-67
2022/08/30 04:36:04;;;;;;;9.47;8.67;;;19.10;99.80;;;;;;5053458;28;20435;-67
2022/08/30 04:38:31;;;;;;;10.20;9.40;;;19.20;99.90;;;;;;5053873;28;20405;-67
2022/08/30 04:40:57;;;;;;;10.60;9.47;;;19.10;99.80;;;;;;5036978;28;20920;-67
2022/08/30 04:43:25;;;;;;;9.30;8.37;;;19.10;99.90;;;;;;5027455;28;20436;-70
2022/08/30 04:45:52;;;;;;;10.90;9.43;;;19.00;99.90;;;;;;5048045;28;20189;-67
2022/08/30 04:48:19;;;;;;;9.93;9.00;;;18.90;99.90;;;;;;5035119;28;20435;-67
2022/08/30 04:50:45;;;;;;;9.87;9.10;;;19.00;99.90;;;;;;5033715;28;21119;-67
2022/08/30 04:53:15;;;;;;;9.90;9.00;;;19.00;99.90;;;;;;5016820;28;20443;-67
2022/08/30 04:55:42;;;;;;;12.03;9.70;;;19.10;99.90;;;;;;5015479;28;20992;-67
2022/08/30 04:58:09;;;;;;;9.80;8.90;;;19.00;99.90;;;;;;5015200;28;20801;-67
2022/08/30 05:00:36;;;;;;;10.77;9.77;;;19.00;99.90;;;;;;5020902;28;20511;-67
2022/08/30 05:03:03;;;;;;;10.07;9.17;;;19.00;99.90;;;;;;5049607;28;20779;-67
2022/08/30 05:05:41;;;;;;;11.10;10.17;;;18.90;99.90;;;;;;5032903;28;20477;-68
2022/08/30 05:08:09;;;;;;;12.60;10.67;;;18.80;99.90;;;;;;5035047;28;20438;-67
2022/08/30 05:10:42;;;;;;;10.27;9.47;;;18.80;99.90;;;;;;5041983;28;20432;-67
2022/08/30 05:13:08;;;;;;;10.60;9.60;;;18.90;99.90;;;;;;5039901;28;20431;-67
2022/08/30 05:15:35;;;;;;;10.67;9.63;;;18.90;99.90;;;;;;5048932;28;20463;-68
2022/08/30 05:18:02;;;;;;;10.43;9.43;;;19.20;99.90;;;;;;5053138;28;20416;-67
2022/08/30 05:20:27;;;;;;;11.40;10.20;;;19.50;99.90;;;;;;5048983;28;20497;-67
2022/08/30 05:22:53;;;;;;;10.27;9.27;;;19.70;99.80;;;;;;5042283;28;20423;-67
2022/08/30 05:25:23;;;;;;;9.97;9.07;;;20.10;99.90;;;;;;5046731;28;20660;-67
2022/08/30 05:27:51;;;;;;;12.00;10.03;;;20.30;99.00;;;;;;5038406;28;20185;-67
2022/08/30 05:30:17;;;;;;;12.20;11.00;;;20.50;98.40;;;;;;5043041;28;20456;-67
2022/08/30 05:32:43;;;;;;;11.73;10.60;;;20.70;98.10;;;;;;5036249;28;20527;-68
2022/08/30 05:35:11;;;;;;;10.57;9.63;;;20.90;97.50;;;;;;5049262;28;20431;-67
2022/08/30 05:37:37;;;;;;;8.77;8.00;;;21.00;97.20;;;;;;5043962;28;20464;-67
2022/08/30 05:40:05;;;;;;;9.80;8.77;;;21.10;97.00;;;;;;5046380;28;20419;-66
2022/08/30 05:42:31;;;;;;;10.20;9.10;;;21.20;96.20;;;;;;5040892;28;20552;-67
2022/08/30 05:44:57;;;;;;;15.20;13.60;;;21.30;96.40;;;;;;5040132;28;20428;-67
2022/08/30 05:47:23;;;;;;;12.60;11.33;;;21.10;96.00;;;;;;5053925;28;20415;-67
2022/08/30 05:49:49;;;;;;;13.37;11.77;;;21.20;96.00;;;;;;5050742;28;20688;-67
2022/08/30 05:52:17;;;;;;;11.20;9.30;;;21.20;95.80;;;;;;5038326;28;20225;-67
2022/08/30 05:54:52;;;;;;;12.80;10.00;;;21.10;95.90;;;;;;5037231;28;20638;-67
2022/08/30 05:57:18;;;;;;;12.57;10.03;;;21.00;96.00;;;;;;5050429;28;20435;-67
2022/08/30 05:59:45;;;;;;;10.17;9.20;;;20.90;96.10;;;;;;5053041;28;20496;-67
2022/08/30 06:02:10;;;;;;;10.93;9.93;;;21.00;96.70;;;;;;5046344;28;20444;-67
2022/08/30 06:04:37;;;;;;;12.13;9.73;;;21.10;96.50;;;;;;5019477;28;20440;-67
2022/08/30 06:07:03;;;;;;;11.03;10.03;;;21.10;95.60;;;;;;5048997;28;20190;-67
2022/08/30 06:09:30;;;;;;;10.60;9.33;;;21.20;96.60;;;;;;5041505;28;20854;-72
2022/08/30 06:11:56;;;;;;;10.27;9.23;;;21.30;96.00;;;;;;5035264;28;20473;-67
2022/08/30 06:14:22;;;;;;;12.37;11.20;;;21.40;95.60;;;;;;5038976;28;20436;-64
2022/08/30 06:16:49;;;;;;;11.07;10.17;;;21.30;95.40;;;;;;5034726;28;20481;-63
2022/08/30 06:19:16;;;;;;;10.83;9.90;;;21.20;94.90;;;;;;5059678;28;20445;-63
2022/08/30 06:21:42;;;;;;;10.50;9.43;;;21.10;95.00;;;;;;5072339;28;20419;-64
2022/08/30 06:24:10;;;;;;;11.70;10.40;;;20.90;95.20;;;;;;5065611;28;20424;-63
2022/08/30 06:26:42;;;;;;;10.40;9.50;;;20.60;95.70;;;;;;5033436;28;20436;-64
2022/08/30 06:29:10;;;;;;;13.20;9.30;;;20.40;96.50;;;;;;5035199;28;20412;-63
2022/08/30 06:31:37;;;;;;;11.03;10.03;;;20.30;96.70;;;;;;5043824;28;20466;-63
2022/08/30 06:34:03;;;;;;;9.40;8.50;;;20.20;97.00;;;;;;5052918;28;20767;-64
2022/08/30 06:36:29;;;;;;;10.17;9.10;;;20.10;97.30;;;;;;5052268;28;20513;-66
2022/08/30 06:38:57;;;;;;;10.17;9.13;;;20.00;97.60;;;;;;5052825;28;20412;-63
2022/08/30 06:41:26;;;;;;;12.07;9.67;;;19.80;97.90;;;;;;5044944;28;20443;-64
2022/08/30 06:43:52;;;;;;;10.37;9.47;;;19.70;98.20;;;;;;5037605;28;20426;-64
2022/08/30 06:46:24;;;;;;;10.63;9.53;;;19.70;98.60;;;;;;5039043;28;20432;-64
2022/08/30 06:48:50;;;;;;;10.50;9.50;;;19.70;98.80;;;;;;5038725;28;20438;-63
2022/08/30 06:51:21;;;;;;;13.20;10.40;;;19.70;99.00;;;;;;5052844;28;20499;-63
2022/08/30 06:53:48;;;;;;;10.70;9.70;;;19.70;99.10;;;;;;5052020;28;20424;-63
2022/08/30 06:56:14;;;;;;;12.50;9.97;;;19.60;99.20;;;;;;5032767;28;20419;-63
2022/08/30 06:58:40;;;;;;;10.83;9.93;;;19.60;99.30;;;;;;5036434;28;20802;-63
2022/08/30 07:01:06;;;;;;;11.00;9.90;;;19.60;99.40;;;;;;5052504;28;20428;-63
2022/08/30 07:03:33;;;;;;;12.23;10.07;;;19.50;99.50;;;;;;5035913;28;20772;-64
2022/08/30 07:05:59;;;;;;;10.17;9.27;;;19.60;99.80;;;;;;5034606;28;20444;-64
2022/08/30 07:08:24;;;;;;;12.03;10.83;;;19.20;99.90;;;;;;5036048;28;20429;-63
2022/08/30 07:10:53;;;;;;;17.27;14.20;;;19.20;99.90;;;;;;5046408;28;20588;-63
2022/08/30 07:13:20;;;;;;;10.47;9.50;;;19.20;99.90;;;;;;5052355;28;20196;-63
2022/08/30 07:15:47;;;;;;;11.50;10.30;;;19.20;99.90;;;;;;5025285;28;20431;-63
2022/08/30 07:21:04;;;;;;;11.00;9.90;;;19.50;99.90;;;;;;4984678;28;20428;-63
2022/08/30 07:23:30;;;;;;;13.77;12.37;;;19.60;99.90;;;;;;5053622;28;20416;-63
2022/08/30 07:25:55;;;;;;;16.60;12.80;;;19.60;99.90;;;;;;5055776;28;20903;-63
2022/08/30 07:28:21;;;;;;;12.87;11.27;;;19.50;99.90;;;;;;5054974;28;20184;-63
2022/08/30 07:30:47;;;;;;;11.10;10.10;;;19.60;99.90;;;;;;5035899;28;20479;-63
2022/08/30 07:33:13;;;;;;;9.70;8.90;;;19.60;99.90;;;;;;5042829;28;20190;-63
2022/08/30 07:35:38;;;;;;;10.30;9.20;;;19.80;99.90;;;;;;5046343;28;20185;-63
2022/08/30 07:38:04;;;;;;;9.00;8.27;;;19.90;99.90;;;;;;5056069;28;20178;-64
2022/08/30 07:40:30;;;;;;;9.47;8.67;;;20.00;99.90;;;;;;5052899;28;20685;-65
2022/08/30 07:42:56;;;;;;;10.70;9.50;;;20.10;99.90;;;;;;5030250;28;20193;-64
2022/08/30 07:45:21;;;;;;;12.70;8.90;;;20.10;99.90;;;;;;5035705;28;20179;-64
2022/08/30 07:47:47;;;;;;;9.70;8.67;;;20.10;99.70;;;;;;5037037;28;20251;-64
2022/08/30 07:50:13;;;;;;;9.77;8.43;;;20.10;99.90;;;;;;5033705;28;20232;-64
2022/08/30 07:52:39;;;;;;;8.67;7.87;;;20.10;99.90;;;;;;5072619;28;20617;-64
2022/08/30 07:55:05;;;;;;;8.73;7.93;;;20.20;99.90;;;;;;5073354;28;20407;-65
2022/08/30 07:57:33;;;;;;;8.53;7.80;;;20.40;99.90;;;;;;5058484;28;20463;-64
2022/08/30 08:00:00;;;;;;;8.63;7.93;;;20.40;99.80;;;;;;5058208;28;20770;-63
2022/08/30 08:02:26;;;;;;;8.40;7.60;;;20.50;99.90;;;;;;5057874;28;20428;-63
2022/08/30 08:04:52;;;;;;;8.30;7.60;;;20.50;99.90;;;;;;5058440;28;20462;-63
2022/08/30 08:07:18;;;;;;;8.37;7.57;;;20.70;99.90;;;;;;5056080;28;20404;-63
2022/08/30 08:09:44;;;;;;;8.50;7.70;;;20.80;99.50;;;;;;5065232;28;20173;-65
2022/08/30 08:12:10;;;;;;;8.17;7.57;;;21.00;99.40;;;;;;5072005;28;20581;-63
2022/08/30 08:14:35;;;;;;;10.30;7.57;;;21.00;99.10;;;;;;5069117;28;20189;-70
2022/08/30 08:17:01;;;;;;;8.20;7.60;;;21.10;98.60;;;;;;5067219;28;20427;-64
2022/08/30 08:19:27;;;;;;;9.23;8.43;;;21.20;98.40;;;;;;5066148;28;20173;-64
2022/08/30 08:21:55;;;;;;;9.47;8.67;;;21.30;98.70;;;;;;5056220;28;20793;-63
2022/08/30 08:24:22;;;;;;;10.40;9.20;;;21.40;98.20;;;;;;5054971;28;20177;-62
2022/08/30 08:26:47;;;;;;;7.73;7.13;;;21.40;97.90;;;;;;5054120;28;20401;-62
2022/08/30 08:29:14;;;;;;;8.67;7.97;;;21.50;98.20;;;;;;5055179;28;20400;-62
2022/08/30 08:31:40;;;;;;;8.23;7.53;;;21.50;98.50;;;;;;5056935;28;20213;-63
2022/08/30 08:34:06;;;;;;;9.37;8.67;;;21.60;98.10;;;;;;5075127;28;20404;-62
2022/08/30 08:36:34;;;;;;;8.00;7.20;;;21.70;98.00;;;;;;5073106;28;20807;-62
2022/08/30 08:39:01;;;;;;;9.33;8.43;;;21.70;97.60;;;;;;5074732;28;20408;-62
2022/08/30 08:41:35;;;;;;;8.53;7.87;;;21.80;97.40;;;;;;5073750;28;20407;-62
2022/08/30 08:44:10;;;;;;;8.57;7.90;;;21.80;97.60;;;;;;5074970;28;20844;-62
2022/08/30 08:46:48;;;;;;;8.50;7.80;;;21.90;97.60;;;;;;5074621;28;20396;-67
2022/08/30 08:49:14;;;;;;;13.00;8.27;;;21.90;97.50;;;;;;5019813;28;20491;-62
2022/08/30 08:54:43;;;;;;;7.40;6.70;;;22.00;97.40;;;;;;5040159;28;20428;-62
2022/08/30 08:57:09;;;;;;;7.60;6.90;;;22.10;96.80;;;;;;5051435;28;20436;-62
2022/08/30 08:59:36;;;;;;;9.00;7.50;;;22.10;96.50;;;;;;5054293;28;20900;-63
2022/08/30 09:02:24;;;;;;;8.00;7.30;;;22.10;96.50;;;;;;5048572;28;20947;-62
2022/08/30 09:04:53;;;;;;;7.63;7.03;;;22.20;96.80;;;;;;5042877;28;20895;-62
2022/08/30 09:07:26;;;;;;;7.67;6.97;;;22.30;97.20;;;;;;5042101;28;20417;-63
2022/08/30 09:09:52;;;;;;;8.13;7.43;;;22.40;96.80;;;;;;5042112;28;20762;-62
2022/08/30 09:12:19;;;;;;;7.67;7.03;;;22.50;96.50;;;;;;5044368;28;20470;-63
2022/08/30 09:14:57;;;;;;;7.90;7.30;;;22.60;96.10;;;;;;5022173;28;20458;-63
2022/08/30 09:17:23;;;;;;;7.87;7.03;;;22.70;96.20;;;;;;5043676;28;20911;-63
2022/08/30 09:19:52;;;;;;;7.27;6.70;;;22.80;96.20;;;;;;5041489;28;20421;-63
2022/08/30 09:22:37;;;;;;;7.40;6.70;;;22.90;95.90;;;;;;5024730;28;20199;-63
2022/08/30 09:25:19;;;;;;;8.90;6.37;;;23.00;95.00;;;;;;5040434;28;20775;-62
2022/08/30 09:27:47;;;;;;;7.03;6.53;;;23.00;94.90;;;;;;5045507;28;20409;-62
2022/08/30 09:30:47;;;;;;;7.70;7.00;;;23.00;94.70;;;;;;5045253;28;20416;-63
2022/08/30 09:33:20;;;;;;;6.40;5.90;;;23.00;94.80;;;;;;5040975;28;20465;-63
2022/08/30 09:35:48;;;;;;;7.03;6.53;;;23.10;94.80;;;;;;5044934;28;20512;-62
2022/08/30 09:38:20;;;;;;;7.90;7.23;;;23.20;95.00;;;;;;5039430;28;20826;-62
2022/08/30 09:40:55;;;;;;;7.77;6.97;;;23.30;95.40;;;;;;5038425;28;20567;-62
2022/08/30 09:43:27;;;;;;;6.53;5.97;;;23.50;94.60;;;;;;5050581;28;20432;-62
2022/08/30 09:45:59;;;;;;;6.07;5.47;;;23.80;94.20;;;;;;5054167;28;20431;-63
2022/08/30 09:48:39;;;;;;;6.50;6.03;;;24.00;93.80;;;;;;5037855;28;20421;-62
2022/08/30 09:51:10;;;;;;;7.00;6.40;;;24.20;93.30;;;;;;5041013;28;20941;-62
2022/08/30 09:54:01;;;;;;;6.17;5.67;;;24.40;92.50;;;;;;5038761;28;20433;-63
2022/08/30 09:56:51;;;;;;;5.97;5.50;;;24.60;92.10;;;;;;5026163;28;20878;-63
2022/08/30 09:59:32;;;;;;;5.87;5.37;;;24.80;92.20;;;;;;5025629;28;20432;-63
2022/08/30 10:02:23;;;;;;;7.20;6.50;;;25.00;90.70;;;;;;5041600;28;20808;-63
2022/08/30 10:04:57;;;;;;;5.70;5.20;;;25.00;91.00;;;;;;5039465;28;20563;-63
2022/08/30 10:07:29;;;;;;;6.10;5.60;;;25.20;90.40;;;;;;5042251;28;20397;-63
2022/08/30 10:10:07;;;;;;;6.60;6.00;;;25.40;90.10;;;;;;5040510;28;20514;-63
2022/08/30 10:12:58;;;;;;;7.17;6.57;;;25.60;89.40;;;;;;5038472;28;20466;-63
2022/08/30 10:15:43;;;;;;;6.00;5.60;;;25.70;89.40;;;;;;5040425;28;20460;-63
2022/08/30 10:18:37;;;;;;;7.70;6.90;;;25.90;88.50;;;;;;5041546;28;20420;-64
2022/08/30 10:21:25;;;;;;;7.57;7.17;;;26.00;86.30;;;;;;5041156;28;20440;-63
2022/08/30 10:24:09;;;;;;;6.57;6.00;;;26.00;84.90;;;;;;5039857;28;20534;-63
2022/08/30 10:26:58;;;;;;;6.93;5.87;;;26.10;85.40;;;;;;5024999;28;20408;-63
2022/08/30 10:29:29;;;;;;;7.53;6.93;;;26.20;84.00;;;;;;5043969;28;20401;-63
2022/08/30 10:32:05;;;;;;;6.30;5.73;;;26.20;84.00;;;;;;5042139;28;20453;-63
2022/08/30 10:34:39;;;;;;;6.33;5.93;;;26.20;84.80;;;;;;5043611;28;20404;-63
2022/08/30 10:37:18;;;;;;;5.30;5.00;;;26.30;83.20;;;;;;5041121;28;20404;-63
2022/08/30 10:39:51;;;;;;;5.80;5.30;;;26.40;83.20;;;;;;5042931;28;20487;-63
2022/08/30 10:42:24;;;;;;;6.80;6.00;;;26.50;82.90;;;;;;5040277;28;20781;-63
2022/08/30 10:45:13;;;;;;;7.63;6.13;;;26.70;82.50;;;;;;5024880;28;20428;-63
2022/08/30 10:48:03;;;;;;;6.00;5.50;;;26.70;79.60;;;;;;5036426;28;20441;-65
2022/08/30 10:50:34;;;;;;;5.73;5.03;;;26.70;78.60;;;;;;5053171;28;20570;-62
2022/08/30 10:52:59;;;;;;;5.83;5.33;;;26.60;78.00;;;;;;5049954;28;20436;-63
2022/08/30 10:55:32;;;;;;;6.63;6.23;;;26.50;78.90;;;;;;4989687;28;20412;-64
2022/08/30 10:58:00;;;;;;;6.73;5.00;;;26.60;79.20;;;;;;4989303;28;20431;-63
2022/08/30 11:00:30;;;;;;;5.20;4.80;;;26.70;78.60;;;;;;5008778;28;20864;-63
2022/08/30 11:03:16;;;;;;;6.27;5.77;;;26.80;77.90;;;;;;5009980;28;20796;-63
2022/08/30 11:06:05;;;;;;;6.77;6.40;;;26.80;75.40;;;;;;5006303;28;20418;-63
2022/08/30 11:09:01;;;;;;;5.73;5.23;;;26.90;77.30;;;;;;4977125;28;20434;-63
2022/08/30 11:11:45;;;;;;;6.40;5.77;;;27.10;78.90;;;;;;4994014;28;20469;-64
2022/08/30 11:14:15;;;;;;;6.60;6.00;;;27.20;76.70;;;;;;5010697;28;20504;-63
2022/08/30 11:16:45;;;;;;;6.77;6.17;;;27.30;76.40;;;;;;4947234;28;20875;-61
2022/08/30 11:19:28;;;;;;;6.47;6.07;;;27.30;75.40;;;;;;4990489;28;20438;-63
2022/08/30 11:22:14;;;;;;;6.27;5.87;;;27.30;75.50;;;;;;5009915;28;20525;-63
2022/08/30 11:25:01;;;;;;;6.80;6.33;;;27.30;74.30;;;;;;5009828;28;20496;-62
2022/08/30 11:27:48;;;;;;;7.27;6.77;;;27.40;74.40;;;;;;5029148;28;20467;-63
2022/08/30 11:30:42;;;;;;;7.60;6.97;;;27.40;74.60;;;;;;5068880;28;20458;-63
2022/08/30 11:33:11;;;;;;;7.13;6.50;;;27.30;75.50;;;;;;5072340;28;20431;-63
2022/08/30 11:35:48;;;;;;;6.60;6.20;;;27.20;74.20;;;;;;5072199;28;20419;-63
2022/08/30 11:38:19;;;;;;;7.33;6.93;;;27.20;73.90;;;;;;5034728;28;20492;-64
2022/08/30 11:40:57;;;;;;;6.50;6.10;;;27.00;73.70;;;;;;5071349;28;20510;-63
2022/08/30 11:43:46;;;;;;;6.60;6.20;;;27.10;74.90;;;;;;5050283;28;20466;-63
2022/08/30 11:46:26;;;;;;;6.47;5.87;;;27.10;74.80;;;;;;5035170;28;20436;-63
2022/08/30 11:49:13;;;;;;;6.20;5.60;;;27.10;74.60;;;;;;5056624;28;20472;-62
2022/08/30 11:52:07;;;;;;;6.70;6.10;;;27.10;74.10;;;;;;5071851;28;20985;-62
2022/08/30 11:54:39;;;;;;;7.50;7.00;;;27.00;73.20;;;;;;5051913;28;20408;-62
2022/08/30 11:57:12;;;;;;;7.20;6.70;;;27.00;73.40;;;;;;5043557;28;20440;-62
2022/08/30 12:00:05;;;;;;;7.50;7.10;;;26.90;73.50;;;;;;5038788;28;20491;-63
2022/08/30 12:03:14;;;;;;;6.23;5.73;;;27.00;73.00;;;;;;5036575;28;20512;-62
2022/08/30 12:05:44;;;;;;;5.93;5.60;;;27.10;72.20;;;;;;5032391;28;20433;-64
2022/08/30 12:08:32;;;;;;;6.37;5.80;;;27.30;71.00;;;;;;5050106;28;20518;-63
2022/08/30 12:11:05;;;;;;;5.73;5.33;;;27.50;70.00;;;;;;5040406;28;20464;-64
2022/08/30 12:13:36;;;;;;;5.60;5.20;;;27.60;69.80;;;;;;5055468;28;20458;-63
2022/08/30 12:16:34;;;;;;;5.53;5.13;;;27.70;69.90;;;;;;5053040;28;20412;-63
2022/08/30 12:19:14;;;;;;;5.40;5.00;;;27.70;68.40;;;;;;5059171;28;20434;-63
2022/08/30 12:21:40;;;;;;;5.13;4.83;;;27.70;67.50;;;;;;5051187;28;20437;-63
2022/08/30 12:24:15;;;;;;;5.40;5.10;;;27.70;68.20;;;;;;4999733;28;20500;-63
2022/08/30 12:26:46;;;;;;;5.70;5.20;;;27.70;68.10;;;;;;5035398;28;20408;-63
2022/08/30 12:29:27;;;;;;;6.03;5.60;;;27.70;68.00;;;;;;5053643;28;20431;-63
2022/08/30 12:31:54;;;;;;;6.47;6.07;;;27.70;66.70;;;;;;4983101;28;20483;-63
2022/08/30 12:34:42;;;;;;;6.40;6.00;;;27.60;68.10;;;;;;5035137;28;20527;-63
2022/08/30 12:37:22;;;;;;;5.20;4.90;;;27.60;67.50;;;;;;5034250;28;20767;-63
2022/08/30 12:39:58;;;;;;;6.27;5.90;;;27.60;68.60;;;;;;5062575;28;20435;-63
2022/08/30 12:42:29;;;;;;;5.27;4.97;;;27.60;67.40;;;;;;5074701;28;20762;-63
2022/08/30 12:44:58;;;;;;;6.17;5.57;;;27.50;68.10;;;;;;5074643;28;20403;-63
2022/08/30 12:47:40;;;;;;;5.60;5.20;;;27.50;67.30;;;;;;5035742;28;20447;-63
2022/08/30 12:50:08;;;;;;;6.93;5.43;;;27.60;68.20;;;;;;5058740;28;20547;-63
2022/08/30 12:52:39;;;;;;;6.60;6.03;;;27.60;68.90;;;;;;5037961;28;20513;-63
2022/08/30 12:55:15;;;;;;;6.63;6.00;;;27.60;68.20;;;;;;5034318;28;20822;-63
2022/08/30 12:58:02;;;;;;;5.90;5.40;;;27.70;68.40;;;;;;5042597;28;20424;-63
2022/08/30 13:00:33;;;;;;;5.93;5.43;;;27.70;67.80;;;;;;5055206;28;20440;-64
2022/08/30 13:03:03;;;;;;;5.20;4.77;;;27.60;65.00;;;;;;5042705;28;20437;-64
2022/08/30 13:05:39;;;;;;;5.27;4.97;;;27.60;66.20;;;;;;5036279;28;20897;-63